Time;durP1;ratioP1;P1;durP2;ratioP2;P2;SDS_P1;SDS_P2;PMS_P1;PMS_P2;Temp;Humidity;BMP_temperature;BMP_pressure;BME280_temperature;BME280_humidity;BME280_pressure;Samples;Min_cycle;Max_cycle;Signal;HPM_P1;HPM_P2
2024/01/04 00:00:28;;;;;;;7.18;1.33;;;9.00;99.90;;;;;;6339231;22;20007;-84
2024/01/04 00:02:54;;;;;;;5.15;1.35;;;9.00;99.90;;;;;;6337846;22;20015;-84
2024/01/04 00:05:20;;;;;;;3.95;0.88;;;9.00;99.90;;;;;;6339008;22;20022;-83
2024/01/04 00:07:46;;;;;;;7.28;1.48;;;9.00;99.90;;;;;;6337913;22;19995;-84
2024/01/04 00:10:13;;;;;;;8.32;1.52;;;9.00;99.90;;;;;;6338060;22;20007;-83
2024/01/04 00:12:39;;;;;;;6.53;1.10;;;9.00;99.90;;;;;;6336761;22;20034;-84
2024/01/04 00:15:05;;;;;;;9.73;1.60;;;8.90;99.90;;;;;;6335955;22;20343;-84
2024/01/04 00:17:33;;;;;;;6.50;1.40;;;9.00;99.90;;;;;;6336283;22;20731;-84
2024/01/04 00:20:01;;;;;;;3.83;0.95;;;9.00;99.90;;;;;;6338183;22;20048;-84
2024/01/04 00:22:26;;;;;;;7.20;1.05;;;8.90;99.90;;;;;;6337971;22;20014;-84
2024/01/04 00:24:52;;;;;;;2.88;1.00;;;9.00;99.90;;;;;;6338927;22;20566;-84
2024/01/04 00:27:17;;;;;;;6.03;1.10;;;9.00;99.90;;;;;;6338967;22;20010;-84
2024/01/04 00:29:43;;;;;;;7.40;1.25;;;9.00;99.90;;;;;;6336947;22;20009;-84
2024/01/04 00:32:09;;;;;;;6.88;1.08;;;9.00;99.90;;;;;;6339297;22;20426;-83
2024/01/04 00:34:35;;;;;;;11.15;1.20;;;9.00;99.90;;;;;;6337823;22;20003;-84
2024/01/04 00:37:02;;;;;;;4.65;1.05;;;9.00;99.90;;;;;;6337998;22;20430;-85
2024/01/04 00:39:27;;;;;;;10.63;1.65;;;9.10;99.90;;;;;;6338311;22;20460;-83
2024/01/04 00:41:53;;;;;;;6.38;1.20;;;9.00;99.90;;;;;;6337397;22;20015;-84
2024/01/04 00:44:19;;;;;;;7.07;1.42;;;9.10;99.90;;;;;;6337427;22;20002;-84
2024/01/04 00:46:45;;;;;;;8.88;1.48;;;9.10;99.90;;;;;;6338540;22;20009;-85
2024/01/04 00:49:11;;;;;;;5.28;1.38;;;9.10;99.90;;;;;;6337917;22;19999;-84
2024/01/04 00:51:37;;;;;;;7.50;1.63;;;9.20;99.90;;;;;;6337338;22;20689;-84
2024/01/04 00:54:02;;;;;;;12.75;2.75;;;9.20;99.90;;;;;;6338014;22;19998;-85
2024/01/04 00:56:35;;;;;;;6.60;1.52;;;9.20;99.90;;;;;;6338469;22;20017;-84
2024/01/04 00:59:01;;;;;;;4.97;1.38;;;9.20;99.90;;;;;;6337152;22;19999;-83
2024/01/04 01:01:27;;;;;;;8.20;1.90;;;9.20;99.90;;;;;;6338157;22;20041;-83
2024/01/04 01:03:53;;;;;;;6.07;1.67;;;9.20;99.90;;;;;;6338584;22;20007;-83
2024/01/04 01:06:18;;;;;;;7.90;1.85;;;9.20;99.90;;;;;;6337031;22;20048;-83
2024/01/04 01:08:44;;;;;;;9.30;2.33;;;9.10;99.90;;;;;;6338524;22;20476;-83
2024/01/04 01:11:09;;;;;;;8.13;2.15;;;9.20;99.90;;;;;;6338785;22;20002;-84
2024/01/04 01:13:35;;;;;;;9.57;1.52;;;9.20;99.90;;;;;;6337649;22;20427;-83
2024/01/04 01:16:01;;;;;;;16.00;2.55;;;9.20;99.90;;;;;;6336635;22;20007;-84
2024/01/04 01:18:27;;;;;;;14.75;2.25;;;9.20;99.90;;;;;;6338178;22;20003;-83
2024/01/04 01:20:54;;;;;;;12.45;2.63;;;9.20;99.90;;;;;;6337006;22;20035;-84
2024/01/04 01:23:19;;;;;;;13.55;2.83;;;9.30;99.90;;;;;;6338365;22;20082;-85
2024/01/04 01:25:45;;;;;;;12.90;2.92;;;9.30;99.90;;;;;;6337558;22;20434;-83
2024/01/04 01:28:11;;;;;;;11.73;2.55;;;9.30;99.90;;;;;;6338112;22;20006;-84
2024/01/04 01:30:36;;;;;;;11.93;2.13;;;9.20;99.90;;;;;;6337666;22;20003;-83
2024/01/04 01:33:02;;;;;;;9.93;2.03;;;9.20;99.90;;;;;;6337444;22;20799;-83
2024/01/04 01:35:28;;;;;;;9.50;1.92;;;9.20;99.90;;;;;;6338610;22;20365;-83
2024/01/04 01:37:53;;;;;;;14.32;2.72;;;9.20;99.90;;;;;;6338290;22;20030;-83
2024/01/04 01:40:21;;;;;;;5.10;1.95;;;9.20;99.90;;;;;;6336520;22;20002;-84
2024/01/04 01:42:50;;;;;;;10.90;2.00;;;9.20;99.90;;;;;;6336220;22;20015;-83
2024/01/04 01:45:16;;;;;;;6.63;3.15;;;9.20;99.90;;;;;;6337059;22;20009;-84
2024/01/04 01:47:45;;;;;;;8.57;2.42;;;9.20;99.90;;;;;;6336441;22;20002;-83
2024/01/04 01:50:10;;;;;;;9.82;2.47;;;9.20;99.90;;;;;;6337776;22;19999;-83
2024/01/04 01:52:37;;;;;;;6.50;1.98;;;9.20;99.90;;;;;;6338079;22;20018;-84
2024/01/04 01:55:03;;;;;;;5.25;2.13;;;9.20;99.90;;;;;;6337186;22;20074;-84
2024/01/04 01:57:32;;;;;;;5.28;2.72;;;9.30;99.90;;;;;;6336883;22;20003;-84
2024/01/04 01:59:58;;;;;;;12.35;3.15;;;9.20;99.90;;;;;;6337779;22;20423;-83
2024/01/04 02:02:24;;;;;;;11.40;2.83;;;9.20;99.90;;;;;;6337091;22;20086;-85
2024/01/04 02:04:50;;;;;;;12.80;3.08;;;9.30;99.90;;;;;;6338113;22;20006;-83
2024/01/04 02:07:16;;;;;;;10.85;2.97;;;9.30;99.90;;;;;;6337884;22;20107;-84
2024/01/04 02:09:42;;;;;;;7.55;3.33;;;9.30;99.90;;;;;;6334432;22;20301;-83
2024/01/04 02:12:13;;;;;;;12.43;4.13;;;9.30;99.90;;;;;;6337992;22;20006;-85
2024/01/04 02:14:39;;;;;;;12.85;4.32;;;9.30;99.90;;;;;;6337686;22;20303;-83
2024/01/04 02:17:05;;;;;;;11.30;4.45;;;9.30;99.90;;;;;;6337654;22;20006;-84
2024/01/04 02:19:32;;;;;;;18.80;4.57;;;9.30;99.90;;;;;;6309863;22;20053;-84
2024/01/04 02:21:59;;;;;;;20.75;5.47;;;9.30;99.90;;;;;;6336486;22;20335;-83
2024/01/04 02:24:25;;;;;;;12.52;4.80;;;10.00;99.90;;;;;;6337835;22;20006;-83
2024/01/04 02:26:51;;;;;;;14.73;6.30;;;9.30;99.90;;;;;;6336788;22;20649;-84
2024/01/04 02:29:18;;;;;;;21.42;5.80;;;9.30;99.90;;;;;;6337277;22;20006;-84
2024/01/04 02:31:47;;;;;;;18.13;5.47;;;9.30;99.90;;;;;;6336776;22;20419;-84
2024/01/04 02:34:12;;;;;;;14.70;5.15;;;9.30;99.90;;;;;;6337100;22;20033;-84
2024/01/04 02:36:38;;;;;;;18.40;5.30;;;9.30;99.90;;;;;;6337014;22;19994;-84
2024/01/04 02:39:04;;;;;;;14.05;5.22;;;9.30;99.90;;;;;;6337063;22;19999;-84
2024/01/04 02:41:30;;;;;;;18.02;5.57;;;9.40;99.90;;;;;;6337123;22;20013;-83
2024/01/04 02:43:55;;;;;;;17.25;4.45;;;9.40;99.90;;;;;;6335993;22;20090;-84
2024/01/04 02:46:21;;;;;;;16.48;4.68;;;9.30;99.90;;;;;;6337168;22;20012;-84
2024/01/04 02:48:47;;;;;;;8.57;3.72;;;9.30;99.90;;;;;;6336926;22;20078;-84
2024/01/04 02:51:12;;;;;;;13.57;3.85;;;9.30;99.90;;;;;;6336323;22;20002;-83
2024/01/04 02:53:38;;;;;;;13.27;5.45;;;10.30;99.90;;;;;;6337156;22;20030;-83
2024/01/04 02:56:04;;;;;;;14.52;5.13;;;9.30;99.90;;;;;;6337065;22;20006;-84
2024/01/04 02:58:30;;;;;;;13.35;2.72;;;9.30;99.90;;;;;;6335972;22;20007;-84
2024/01/04 03:00:55;;;;;;;4.38;1.88;;;9.30;99.90;;;;;;6336853;22;20006;-84
2024/01/04 03:03:21;;;;;;;9.75;1.98;;;9.30;99.90;;;;;;6337690;22;20006;-84
2024/01/04 03:05:47;;;;;;;2.55;0.90;;;9.30;99.90;;;;;;6335914;22;20007;-83
2024/01/04 03:08:13;;;;;;;9.60;1.52;;;9.20;99.90;;;;;;6337760;22;20003;-83
2024/01/04 03:10:39;;;;;;;3.67;1.38;;;9.10;99.90;;;;;;6337033;22;20006;-83
2024/01/04 03:13:06;;;;;;;2.05;1.30;;;9.20;99.90;;;;;;6336470;22;20007;-83
2024/01/04 03:15:32;;;;;;;4.93;2.15;;;9.10;99.90;;;;;;6336907;22;20003;-83
2024/01/04 03:17:58;;;;;;;2.38;1.20;;;8.70;99.90;;;;;;6337892;22;19999;-83
2024/01/04 03:20:23;;;;;;;5.18;1.35;;;9.10;99.90;;;;;;6336286;22;20002;-83
2024/01/04 03:22:49;;;;;;;6.68;1.38;;;9.00;99.90;;;;;;6336837;22;20018;-84
2024/01/04 03:25:16;;;;;;;4.03;1.25;;;9.10;99.90;;;;;;6336253;22;20070;-85
2024/01/04 03:27:43;;;;;;;4.90;1.40;;;9.00;99.90;;;;;;6337376;22;20011;-84
2024/01/04 03:30:09;;;;;;;3.00;1.35;;;9.10;99.90;;;;;;6337569;22;19999;-84
2024/01/04 03:32:35;;;;;;;1.63;1.27;;;9.00;99.90;;;;;;6336737;22;20097;-84
2024/01/04 03:35:01;;;;;;;4.25;1.38;;;9.00;99.90;;;;;;6336786;22;20037;-83
2024/01/04 03:37:26;;;;;;;2.67;1.20;;;9.00;99.90;;;;;;6337043;22;20028;-83
2024/01/04 03:39:53;;;;;;;8.38;2.35;;;9.00;99.90;;;;;;6336077;22;20417;-83
2024/01/04 03:42:20;;;;;;;2.70;1.05;;;9.10;99.90;;;;;;6336247;22;20013;-83
2024/01/04 03:44:45;;;;;;;3.35;1.17;;;9.00;99.90;;;;;;6335294;22;20080;-83
2024/01/04 03:47:11;;;;;;;5.50;1.58;;;9.00;99.90;;;;;;6336827;22;20427;-83
2024/01/04 03:49:37;;;;;;;2.65;1.48;;;9.60;99.90;;;;;;6336774;22;20009;-83
2024/01/04 03:52:02;;;;;;;6.75;2.45;;;8.90;99.90;;;;;;6337317;22;20021;-83
2024/01/04 03:54:28;;;;;;;7.15;2.60;;;9.00;99.90;;;;;;6337024;22;20002;-82
2024/01/04 03:56:54;;;;;;;6.28;2.35;;;9.00;99.90;;;;;;6337660;22;20003;-84
2024/01/04 03:59:20;;;;;;;5.60;3.03;;;9.10;99.90;;;;;;6337258;22;20076;-84
2024/01/04 04:01:58;;;;;;;6.45;2.45;;;9.10;99.90;;;;;;6309912;22;20063;-84
2024/01/04 04:04:24;;;;;;;6.50;3.33;;;10.00;99.90;;;;;;6338063;22;20012;-84
2024/01/04 04:06:50;;;;;;;4.43;3.00;;;10.10;99.90;;;;;;6338665;22;20007;-85
2024/01/04 04:09:15;;;;;;;12.32;3.70;;;9.10;99.90;;;;;;6337013;22;20003;-84
2024/01/04 04:11:41;;;;;;;12.85;4.78;;;9.00;99.90;;;;;;6338886;22;20140;-84
2024/01/04 04:14:09;;;;;;;6.68;4.22;;;9.00;99.90;;;;;;6338949;22;20449;-83
2024/01/04 04:16:39;;;;;;;10.40;4.20;;;9.10;99.90;;;;;;6337841;22;20009;-83
2024/01/04 04:19:05;;;;;;;9.93;4.40;;;9.10;99.90;;;;;;6338453;22;20406;-84
2024/01/04 04:21:30;;;;;;;7.88;3.17;;;9.10;99.90;;;;;;6337335;22;20029;-83
2024/01/04 04:23:56;;;;;;;13.23;4.28;;;9.20;99.90;;;;;;6338122;22;20086;-84
2024/01/04 04:26:34;;;;;;;14.02;3.72;;;9.20;99.90;;;;;;6338905;22;20006;-84
2024/01/04 04:29:12;;;;;;;10.98;4.20;;;9.20;99.90;;;;;;6337457;22;20048;-84
2024/01/04 04:31:38;;;;;;;7.68;3.33;;;9.90;99.90;;;;;;6337093;22;20037;-84
2024/01/04 04:34:04;;;;;;;9.85;3.35;;;9.20;99.90;;;;;;6338001;22;20007;-84
2024/01/04 04:36:29;;;;;;;9.95;3.70;;;10.00;99.90;;;;;;6338114;22;20011;-84
2024/01/04 04:38:55;;;;;;;12.02;4.38;;;10.10;99.90;;;;;;6338798;22;19999;-84
2024/01/04 04:41:21;;;;;;;10.52;3.22;;;9.20;99.90;;;;;;6337318;22;20003;-84
2024/01/04 04:44:11;;;;;;;9.35;3.00;;;9.20;99.90;;;;;;6334503;22;20025;-84
2024/01/04 04:46:37;;;;;;;10.15;2.80;;;9.20;99.90;;;;;;6338031;22;19999;-84
2024/01/04 04:49:03;;;;;;;8.93;2.60;;;9.20;99.90;;;;;;6338596;22;20001;-84
2024/01/04 04:51:28;;;;;;;11.55;3.45;;;9.20;99.90;;;;;;6338247;22;20003;-84
2024/01/04 04:53:54;;;;;;;16.30;3.08;;;9.20;99.90;;;;;;6338198;22;20338;-85
2024/01/04 04:56:21;;;;;;;9.23;3.25;;;9.20;99.90;;;;;;6338361;22;20055;-84
2024/01/04 04:58:46;;;;;;;7.72;3.03;;;9.20;99.90;;;;;;6337533;22;20017;-84
2024/01/04 05:01:13;;;;;;;12.45;3.13;;;9.20;99.90;;;;;;6337839;22;20003;-85
2024/01/04 05:03:39;;;;;;;11.88;3.08;;;9.20;99.90;;;;;;6337945;22;20086;-84
2024/01/04 05:06:08;;;;;;;6.88;3.05;;;9.20;99.90;;;;;;6337274;22;20006;-83
2024/01/04 05:08:34;;;;;;;15.18;3.90;;;9.20;99.90;;;;;;6337573;22;20002;-84
2024/01/04 05:10:59;;;;;;;7.13;2.95;;;9.30;99.90;;;;;;6338073;22;19998;-83
2024/01/04 05:13:25;;;;;;;9.68;3.50;;;9.20;99.90;;;;;;6337965;22;20074;-83
2024/01/04 05:15:51;;;;;;;9.27;3.67;;;9.20;99.90;;;;;;6338199;22;20096;-83
2024/01/04 05:18:16;;;;;;;16.35;3.80;;;9.20;99.90;;;;;;6337150;22;19999;-83
2024/01/04 05:20:45;;;;;;;9.48;3.22;;;9.20;99.90;;;;;;6337901;22;19998;-83
2024/01/04 05:23:12;;;;;;;8.63;2.97;;;9.10;99.90;;;;;;6338245;22;20015;-83
2024/01/04 05:25:38;;;;;;;5.63;2.33;;;10.00;99.90;;;;;;6337730;22;20051;-84
2024/01/04 05:28:03;;;;;;;4.57;1.83;;;9.10;99.90;;;;;;6338601;22;20002;-84
2024/01/04 05:30:29;;;;;;;5.82;1.73;;;9.10;99.90;;;;;;6336110;22;20509;-84
2024/01/04 05:32:56;;;;;;;6.50;1.48;;;9.00;99.90;;;;;;6337279;22;19995;-84
2024/01/04 05:35:22;;;;;;;7.43;1.63;;;9.00;99.90;;;;;;6337908;22;20084;-84
2024/01/04 05:37:47;;;;;;;3.53;0.80;;;8.90;99.90;;;;;;6338770;22;19999;-84
2024/01/04 05:40:16;;;;;;;2.05;1.00;;;9.00;99.90;;;;;;6338510;22;20034;-84
2024/01/04 05:42:42;;;;;;;1.55;0.80;;;9.00;99.90;;;;;;6338078;22;20014;-83
2024/01/04 05:45:07;;;;;;;1.48;0.75;;;9.00;99.90;;;;;;6337877;22;20111;-83
2024/01/04 05:47:33;;;;;;;1.58;0.80;;;8.90;99.90;;;;;;6337208;22;20368;-84
2024/01/04 05:49:59;;;;;;;1.95;1.23;;;9.00;99.90;;;;;;6338532;22;19999;-84
2024/01/04 05:52:25;;;;;;;2.22;1.00;;;9.00;99.90;;;;;;6337915;22;19995;-84
2024/01/04 05:54:50;;;;;;;1.92;1.10;;;8.90;99.90;;;;;;6336941;22;20089;-84
2024/01/04 05:57:19;;;;;;;1.67;1.05;;;9.00;99.90;;;;;;6337599;22;19995;-85
2024/01/04 05:59:44;;;;;;;2.60;1.60;;;9.00;99.90;;;;;;6337237;22;20335;-84
2024/01/04 06:02:12;;;;;;;5.72;1.70;;;8.90;99.90;;;;;;6336470;22;20083;-83
2024/01/04 06:04:37;;;;;;;4.90;1.60;;;8.90;99.90;;;;;;6337565;22;20018;-83
2024/01/04 06:07:03;;;;;;;3.38;1.40;;;8.90;99.90;;;;;;6336855;22;19999;-84
2024/01/04 06:09:28;;;;;;;4.78;1.70;;;8.90;99.90;;;;;;6337443;22;20007;-84
2024/01/04 06:11:54;;;;;;;4.35;1.73;;;8.90;99.90;;;;;;6338002;22;20423;-85
2024/01/04 06:14:20;;;;;;;1.52;1.38;;;8.90;99.90;;;;;;6337471;22;20075;-84
2024/01/04 06:16:45;;;;;;;3.20;1.40;;;8.90;99.90;;;;;;6337584;22;20475;-85
2024/01/04 06:19:12;;;;;;;6.35;1.98;;;8.90;99.90;;;;;;6310337;22;20014;-84
2024/01/04 06:21:38;;;;;;;6.25;2.42;;;8.90;99.90;;;;;;6336326;22;20033;-85
2024/01/04 06:24:04;;;;;;;3.45;1.90;;;8.90;99.90;;;;;;6332793;22;20006;-85
2024/01/04 06:26:30;;;;;;;4.35;1.95;;;8.90;99.90;;;;;;6333735;22;20034;-85
2024/01/04 06:28:56;;;;;;;5.47;1.73;;;8.90;99.90;;;;;;6334750;22;19999;-83
2024/01/04 06:31:22;;;;;;;4.75;1.60;;;9.70;99.90;;;;;;6334324;22;20548;-83
2024/01/04 06:33:47;;;;;;;6.65;1.80;;;8.90;99.90;;;;;;6335143;22;20078;-83
2024/01/04 06:36:18;;;;;;;6.57;1.60;;;9.00;99.90;;;;;;6334768;22;20021;-84
2024/01/04 06:38:44;;;;;;;8.10;1.80;;;8.30;99.90;;;;;;6335619;22;20003;-85
2024/01/04 06:41:10;;;;;;;8.63;1.40;;;9.80;99.90;;;;;;6335793;22;20013;-83
2024/01/04 06:43:36;;;;;;;4.32;1.60;;;9.00;99.90;;;;;;6335577;22;20022;-85
2024/01/04 06:46:02;;;;;;;5.80;1.40;;;9.00;99.90;;;;;;6335907;22;20356;-84
2024/01/04 06:48:29;;;;;;;7.63;1.95;;;9.10;99.90;;;;;;6335282;22;20018;-82
2024/01/04 06:50:54;;;;;;;7.20;2.08;;;9.10;99.90;;;;;;6333986;22;20003;-83
2024/01/04 06:53:20;;;;;;;6.82;2.28;;;9.10;99.90;;;;;;6334026;22;20014;-84
2024/01/04 06:55:45;;;;;;;4.35;2.00;;;9.10;99.90;;;;;;6335111;22;20003;-83
2024/01/04 06:58:17;;;;;;;8.65;2.67;;;9.10;99.90;;;;;;6335849;22;19999;-83
2024/01/04 07:00:53;;;;;;;8.10;2.30;;;9.10;99.90;;;;;;6335651;22;20049;-83
2024/01/04 07:03:21;;;;;;;10.43;3.58;;;9.20;99.90;;;;;;6334901;22;20089;-84
2024/01/04 07:05:47;;;;;;;10.60;2.97;;;9.90;99.90;;;;;;6334800;22;20471;-84
2024/01/04 07:08:13;;;;;;;7.55;2.90;;;9.90;99.90;;;;;;6333712;22;19999;-84
2024/01/04 07:10:41;;;;;;;7.43;3.05;;;9.10;99.90;;;;;;6333936;22;20036;-83
2024/01/04 07:13:08;;;;;;;11.60;3.33;;;9.10;99.90;;;;;;6335162;22;20369;-84
2024/01/04 07:15:34;;;;;;;12.70;4.22;;;9.10;99.90;;;;;;6334636;22;19999;-84
2024/01/04 07:17:59;;;;;;;8.80;2.50;;;9.90;99.90;;;;;;6333738;22;20097;-85
2024/01/04 07:20:25;;;;;;;4.75;2.40;;;9.20;99.90;;;;;;6335273;22;20487;-84
2024/01/04 07:22:52;;;;;;;11.50;2.63;;;9.10;99.90;;;;;;6337060;22;20041;-84
2024/01/04 07:25:19;;;;;;;6.82;2.72;;;9.10;99.90;;;;;;6337274;22;20018;-84
2024/01/04 07:27:44;;;;;;;5.53;1.42;;;9.10;99.90;;;;;;6336443;22;20007;-82
2024/01/04 07:30:10;;;;;;;2.25;1.00;;;9.00;99.90;;;;;;6335696;22;20010;-82
2024/01/04 07:32:36;;;;;;;1.85;1.02;;;9.00;99.90;;;;;;6334958;22;20017;-83
2024/01/04 07:35:03;;;;;;;3.83;0.98;;;8.90;99.90;;;;;;6333744;22;20014;-82
2024/01/04 07:37:28;;;;;;;1.85;0.82;;;8.90;99.90;;;;;;6333467;22;20093;-83
2024/01/04 07:39:54;;;;;;;4.60;1.00;;;8.90;99.90;;;;;;6336309;22;20033;-83
2024/01/04 07:42:20;;;;;;;3.90;1.30;;;8.90;99.90;;;;;;6339048;22;20011;-83
2024/01/04 07:44:46;;;;;;;4.35;1.23;;;9.00;99.90;;;;;;6338490;22;20018;-83
2024/01/04 07:47:11;;;;;;;4.45;1.35;;;9.00;99.90;;;;;;6338391;22;19991;-84
2024/01/04 07:49:38;;;;;;;5.25;1.65;;;9.00;99.90;;;;;;6338894;22;20047;-84
2024/01/04 07:52:04;;;;;;;5.63;1.67;;;9.00;99.90;;;;;;6338286;22;20268;-83
2024/01/04 07:54:29;;;;;;;4.20;1.67;;;9.00;99.90;;;;;;6336527;22;20010;-83
2024/01/04 07:56:55;;;;;;;3.38;2.17;;;9.00;99.90;;;;;;6336146;22;20022;-84
2024/01/04 07:59:22;;;;;;;6.28;2.08;;;9.00;99.90;;;;;;6334110;22;20438;-83
2024/01/04 08:01:49;;;;;;;5.85;2.33;;;9.00;99.90;;;;;;6335992;22;20391;-84
2024/01/04 08:04:15;;;;;;;5.40;2.00;;;9.10;99.90;;;;;;6336940;22;20010;-83
2024/01/04 08:06:41;;;;;;;4.28;1.95;;;9.20;99.90;;;;;;6335491;22;20002;-84
2024/01/04 08:09:08;;;;;;;2.83;1.85;;;9.20;99.90;;;;;;6338961;22;19998;-83
2024/01/04 08:11:33;;;;;;;3.08;1.10;;;9.80;99.90;;;;;;6335311;22;20508;-84
2024/01/04 08:14:06;;;;;;;4.43;1.13;;;9.90;99.90;;;;;;6337967;22;20003;-84
2024/01/04 08:16:32;;;;;;;3.88;1.38;;;9.20;99.90;;;;;;6337857;22;20003;-85
2024/01/04 08:18:58;;;;;;;5.60;1.67;;;9.20;99.90;;;;;;6338087;22;20082;-86
2024/01/04 08:21:23;;;;;;;7.07;2.25;;;10.00;99.90;;;;;;6337661;22;20006;-84
2024/01/04 08:23:53;;;;;;;5.68;1.75;;;9.70;99.90;;;;;;6337477;22;20021;-84
2024/01/04 08:26:18;;;;;;;3.05;1.50;;;10.50;99.90;;;;;;6338825;22;20327;-83
2024/01/04 08:28:46;;;;;;;5.10;1.35;;;9.10;99.90;;;;;;6337862;22;20010;-82
2024/01/04 08:31:12;;;;;;;6.70;1.33;;;9.10;99.90;;;;;;6338371;22;19999;-84
2024/01/04 08:33:37;;;;;;;6.22;1.42;;;9.10;99.90;;;;;;6337879;22;20006;-84
2024/01/04 08:36:04;;;;;;;4.25;1.40;;;9.10;99.90;;;;;;6337367;22;20529;-82
2024/01/04 08:38:30;;;;;;;2.75;1.50;;;9.20;99.90;;;;;;6338972;22;20037;-84
2024/01/04 08:40:56;;;;;;;7.40;1.48;;;9.20;99.90;;;;;;6326159;22;20098;-84
2024/01/04 08:43:22;;;;;;;6.22;1.30;;;9.20;99.90;;;;;;6335906;22;20026;-83
2024/01/04 08:45:49;;;;;;;3.33;1.10;;;9.30;99.90;;;;;;6337611;22;20132;-86
2024/01/04 08:48:15;;;;;;;3.13;1.27;;;9.20;99.90;;;;;;6333613;22;20049;-83
2024/01/04 08:50:41;;;;;;;4.22;1.38;;;9.20;99.90;;;;;;6336832;22;20470;-85
2024/01/04 08:53:06;;;;;;;2.60;1.27;;;9.20;99.90;;;;;;6342042;22;20033;-83
2024/01/04 08:55:33;;;;;;;5.03;1.38;;;9.10;99.90;;;;;;6338530;22;20019;-87
2024/01/04 08:57:59;;;;;;;2.53;1.00;;;9.10;99.90;;;;;;6336335;22;20090;-85
2024/01/04 09:00:24;;;;;;;5.78;1.20;;;9.10;99.90;;;;;;6337759;22;20026;-83
2024/01/04 09:02:50;;;;;;;2.13;1.10;;;9.10;99.90;;;;;;6335985;22;20046;-83
2024/01/04 09:05:16;;;;;;;5.72;1.35;;;9.90;99.90;;;;;;6338934;22;20040;-84
2024/01/04 09:07:42;;;;;;;1.90;1.10;;;9.30;99.90;;;;;;6338255;22;20014;-83
2024/01/04 09:10:08;;;;;;;2.53;1.00;;;9.20;99.90;;;;;;6336332;22;19999;-84
2024/01/04 09:12:33;;;;;;;1.45;0.90;;;9.20;99.90;;;;;;6337574;22;20013;-84
2024/01/04 09:14:59;;;;;;;0.90;0.80;;;9.10;99.90;;;;;;6337741;22;20365;-84
2024/01/04 09:17:25;;;;;;;2.42;0.88;;;9.10;99.90;;;;;;6337685;22;20025;-84
2024/01/04 09:19:52;;;;;;;2.63;0.98;;;9.50;99.90;;;;;;6337223;22;20006;-83
2024/01/04 09:22:18;;;;;;;2.15;1.15;;;9.10;99.90;;;;;;6336458;22;20080;-83
2024/01/04 09:24:44;;;;;;;2.75;1.05;;;9.00;99.90;;;;;;6337598;22;20402;-84
2024/01/04 09:27:13;;;;;;;4.72;1.33;;;9.00;99.90;;;;;;6338636;22;19999;-84
2024/01/04 09:29:41;;;;;;;5.05;2.80;;;9.10;99.90;;;;;;6338170;22;20003;-83
2024/01/04 09:32:07;;;;;;;3.63;1.02;;;9.00;99.90;;;;;;6337044;22;20010;-83
2024/01/04 09:34:32;;;;;;;3.13;1.17;;;9.10;99.90;;;;;;6338495;22;19999;-83
2024/01/04 09:37:00;;;;;;;10.00;1.60;;;9.10;99.90;;;;;;6339278;22;20484;-84
2024/01/04 09:39:26;;;;;;;5.90;1.42;;;9.10;99.90;;;;;;6338455;22;20077;-84
2024/01/04 09:41:53;;;;;;;5.88;1.65;;;10.10;99.90;;;;;;6338253;22;20022;-85
2024/01/04 09:44:20;;;;;;;4.05;1.48;;;9.10;99.90;;;;;;6337863;22;20014;-84
2024/01/04 09:46:48;;;;;;;6.32;1.48;;;9.10;99.90;;;;;;6335751;22;19999;-83
2024/01/04 09:49:14;;;;;;;7.50;2.33;;;9.10;99.90;;;;;;6337580;22;20002;-82
2024/01/04 09:51:42;;;;;;;7.20;2.15;;;9.50;99.90;;;;;;6337285;22;20027;-79
2024/01/04 09:54:10;;;;;;;7.40;2.25;;;9.20;99.90;;;;;;6336777;22;20006;-83
2024/01/04 09:56:40;;;;;;;3.20;1.73;;;9.20;99.90;;;;;;6333857;22;20446;-83
2024/01/04 09:59:09;;;;;;;6.75;2.47;;;9.20;99.90;;;;;;6334161;22;20010;-81
2024/01/04 10:01:38;;;;;;;7.45;3.08;;;9.20;99.90;;;;;;6337272;22;20002;-89
2024/01/04 10:04:11;;;;;;;9.32;2.47;;;9.20;99.90;;;;;;6337245;22;20017;-85
2024/01/04 10:06:40;;;;;;;10.30;2.00;;;9.30;99.90;;;;;;6335974;22;20422;-89
2024/01/04 10:09:18;;;;;;;3.72;1.52;;;9.30;99.90;;;;;;6337523;22;20006;-83
2024/01/04 10:12:05;;;;;;;3.63;1.75;;;9.30;99.90;;;;;;6338943;22;20464;-81
2024/01/04 10:14:31;;;;;;;3.15;1.38;;;9.40;99.90;;;;;;6335633;22;20010;-84
2024/01/04 10:16:58;;;;;;;7.32;1.75;;;9.40;99.90;;;;;;6338078;22;20007;-86
2024/01/04 10:19:25;;;;;;;6.93;2.10;;;9.50;99.90;;;;;;6336712;22;20011;-83
2024/01/04 10:21:52;;;;;;;4.45;1.65;;;9.50;99.90;;;;;;6339118;22;20053;-86
2024/01/04 10:24:24;;;;;;;4.55;1.98;;;9.60;99.90;;;;;;6337412;22;20041;-88
2024/01/04 10:27:07;;;;;;;8.05;1.75;;;9.60;99.90;;;;;;6353575;22;19999;-89
2024/01/04 10:29:40;;;;;;;7.88;2.10;;;9.60;99.90;;;;;;6359772;22;19994;-94
2024/01/04 10:32:14;;;;;;;7.97;2.30;;;9.70;99.90;;;;;;6319986;22;20014;-92
2024/01/04 10:34:41;;;;;;;4.05;1.52;;;9.70;99.90;;;;;;6349927;22;19991;-91
2024/01/04 10:37:13;;;;;;;8.52;2.00;;;9.70;99.90;;;;;;6346211;22;20027;-88
2024/01/04 10:39:45;;;;;;;5.30;1.45;;;9.80;99.90;;;;;;6352183;22;20003;-90
2024/01/04 10:42:13;;;;;;;6.35;1.98;;;9.60;99.90;;;;;;6342207;22;20074;-88
2024/01/04 10:44:43;;;;;;;14.00;2.28;;;9.50;99.90;;;;;;6339361;22;20011;-88
2024/01/04 10:47:13;;;;;;;4.85;1.90;;;9.50;99.90;;;;;;6347628;22;20003;-89
2024/01/04 10:49:42;;;;;;;4.40;1.70;;;9.50;99.90;;;;;;6346466;22;20030;-90
2024/01/04 10:52:15;;;;;;;7.30;2.08;;;9.50;99.90;;;;;;6340118;22;20030;-90
2024/01/04 10:54:41;;;;;;;11.48;2.03;;;9.50;99.90;;;;;;6347015;22;20052;-90
2024/01/04 10:57:09;;;;;;;5.72;1.88;;;9.50;99.90;;;;;;6347099;22;20010;-88
2024/01/04 10:59:36;;;;;;;6.03;2.03;;;9.50;99.90;;;;;;6343897;22;19994;-87
2024/01/04 11:02:11;;;;;;;7.07;2.53;;;9.50;99.90;;;;;;6338739;22;20011;-87
2024/01/04 11:04:38;;;;;;;8.93;1.92;;;9.50;99.90;;;;;;6339128;22;20006;-90
2024/01/04 11:07:07;;;;;;;7.78;2.63;;;9.50;99.90;;;;;;6339019;22;20003;-90
2024/01/04 11:09:34;;;;;;;4.03;2.15;;;9.50;99.90;;;;;;6337252;22;20005;-92
2024/01/04 11:12:02;;;;;;;8.90;2.10;;;9.50;99.90;;;;;;6334616;22;20010;-85
2024/01/04 11:14:29;;;;;;;9.05;1.90;;;9.50;99.90;;;;;;6341004;22;20480;-91
2024/01/04 11:17:17;;;;;;;5.32;2.45;;;9.50;99.90;;;;;;6346266;22;19998;-89
2024/01/04 11:20:13;;;;;;;8.15;2.13;;;9.60;99.90;;;;;;6345409;22;20073;-91
2024/01/04 11:23:05;;;;;;;6.45;2.30;;;9.60;99.90;;;;;;6341392;22;20103;-90
2024/01/04 11:26:39;;;;;;;6.15;2.20;;;9.50;99.90;;;;;;6339434;22;20003;-89
2024/01/04 11:29:12;;;;;;;6.88;1.80;;;9.50;99.90;;;;;;6286374;22;20003;-90
2024/01/04 11:31:42;;;;;;;5.40;1.60;;;9.60;99.90;;;;;;6340520;22;20455;-82
2024/01/04 11:34:11;;;;;;;3.60;1.30;;;9.50;99.90;;;;;;6340271;22;20005;-86
2024/01/04 11:36:42;;;;;;;8.63;3.22;;;9.50;99.90;;;;;;6319133;22;20007;-91
2024/01/04 11:39:07;;;;;;;3.22;1.38;;;9.50;99.90;;;;;;6345592;22;20318;-91
2024/01/04 11:41:39;;;;;;;3.10;1.77;;;9.60;99.90;;;;;;6346622;22;19999;-91
2024/01/04 11:44:16;;;;;;;4.95;1.67;;;9.60;99.90;;;;;;6347406;22;20522;-88
2024/01/04 11:46:44;;;;;;;4.68;1.10;;;9.60;99.90;;;;;;6350904;22;20006;-91
2024/01/04 11:49:19;;;;;;;7.35;1.80;;;9.50;99.90;;;;;;6349103;22;20168;-92
2024/01/04 11:51:47;;;;;;;1.95;0.80;;;9.60;99.90;;;;;;6344560;22;19999;-93
2024/01/04 11:54:17;;;;;;;5.05;1.65;;;9.60;99.90;;;;;;6345282;22;20010;-94
2024/01/04 11:56:43;;;;;;;5.97;1.60;;;9.60;99.90;;;;;;6348463;22;19999;-92
2024/01/04 11:59:21;;;;;;;5.53;1.73;;;9.70;99.90;;;;;;6347472;22;20003;-93
2024/01/04 12:01:58;;;;;;;2.53;1.02;;;9.60;99.90;;;;;;6348090;22;20019;-91
2024/01/04 12:04:34;;;;;;;4.65;1.08;;;9.70;99.90;;;;;;6346991;22;20015;-93
2024/01/04 12:07:12;;;;;;;3.75;0.98;;;9.70;99.90;;;;;;6353959;22;20002;-94
2024/01/04 12:09:40;;;;;;;3.70;1.30;;;9.80;99.90;;;;;;6349913;22;20025;-93
2024/01/04 12:12:08;;;;;;;8.55;1.85;;;9.80;99.90;;;;;;6349625;22;20027;-92
2024/01/04 12:14:35;;;;;;;3.28;1.77;;;9.80;99.90;;;;;;6345384;22;20067;-84
2024/01/04 12:17:06;;;;;;;3.70;1.65;;;9.80;99.90;;;;;;6341888;22;20002;-93
2024/01/04 12:19:34;;;;;;;9.85;2.25;;;9.80;99.90;;;;;;6346978;22;20079;-93
2024/01/04 12:22:02;;;;;;;10.40;2.15;;;9.90;99.90;;;;;;6346543;22;20002;-93
2024/01/04 12:24:29;;;;;;;7.07;1.92;;;9.90;99.90;;;;;;6348164;22;20003;-93
2024/01/04 12:26:55;;;;;;;11.93;2.55;;;10.00;99.90;;;;;;6347452;22;20054;-91
2024/01/04 12:29:29;;;;;;;17.45;1.83;;;10.00;99.90;;;;;;6362431;22;19995;-91
2024/01/04 12:31:54;;;;;;;6.53;1.40;;;10.00;99.90;;;;;;6340309;22;20029;-86
2024/01/04 12:34:32;;;;;;;5.63;1.25;;;11.20;99.90;;;;;;6357616;22;20054;-91
2024/01/04 12:37:09;;;;;;;3.55;1.20;;;9.90;99.90;;;;;;6358693;22;20010;-91
2024/01/04 12:39:35;;;;;;;5.00;1.00;;;9.80;99.90;;;;;;6359532;22;20068;-93
2024/01/04 12:42:05;;;;;;;6.72;1.65;;;9.70;99.90;;;;;;6346627;22;20009;-92
2024/01/04 12:44:43;;;;;;;1.55;0.68;;;9.70;99.90;;;;;;6345179;22;20014;-95
2024/01/04 12:47:11;;;;;;;4.32;1.27;;;9.60;99.90;;;;;;6343288;22;20063;-89
2024/01/04 12:49:48;;;;;;;1.50;0.80;;;9.60;99.90;;;;;;6341373;22;19998;-91
2024/01/04 12:52:23;;;;;;;4.28;1.02;;;9.60;99.90;;;;;;6343102;22;20026;-89
2024/01/04 12:54:54;;;;;;;4.93;1.08;;;10.30;99.90;;;;;;6350595;22;20358;-91
2024/01/04 12:57:22;;;;;;;3.22;1.15;;;9.40;99.90;;;;;;6342037;22;20320;-89